sensor_id;sensor_type;location;lat;lon;timestamp;P1;durP1;ratioP1;P2;durP2;ratioP2
63965;SDS011;50151;52.030;5.350;2023-07-20T06:24:40;2.38;;;1.65;;
63965;SDS011;50151;52.030;5.350;2023-07-20T06:27:07;3.55;;;1.70;;
63965;SDS011;50151;52.030;5.350;2023-07-20T06:29:34;2.72;;;1.30;;
63965;SDS011;50151;52.030;5.350;2023-07-20T06:32:00;4.00;;;1.52;;
63965;SDS011;50151;52.030;5.350;2023-07-20T06:34:27;3.25;;;1.58;;
63965;SDS011;50151;52.030;5.350;2023-07-20T06:36:55;1.30;;;1.20;;
63965;SDS011;50151;52.030;5.350;2023-07-20T06:39:22;1.30;;;1.10;;
63965;SDS011;50151;52.030;5.350;2023-07-20T06:41:51;1.83;;;1.20;;
63965;SDS011;50151;52.030;5.350;2023-07-20T06:44:21;1.73;;;1.30;;
63965;SDS011;50151;52.030;5.350;2023-07-20T06:46:48;1.33;;;1.13;;
63965;SDS011;50151;52.030;5.350;2023-07-20T06:49:24;4.07;;;1.20;;
63965;SDS011;50151;52.030;5.350;2023-07-20T06:51:52;2.67;;;1.00;;
63965;SDS011;50151;52.030;5.350;2023-07-20T06:54:19;2.50;;;0.98;;
63965;SDS011;50151;52.030;5.350;2023-07-20T06:56:49;2.83;;;0.90;;
63965;SDS011;50151;52.030;5.350;2023-07-20T06:59:36;2.33;;;1.00;;
63965;SDS011;50151;52.030;5.350;2023-07-20T07:02:07;3.25;;;1.00;;
63965;SDS011;50151;52.030;5.350;2023-07-20T07:04:40;3.10;;;1.20;;
63965;SDS011;50151;52.030;5.350;2023-07-20T07:07:07;1.48;;;1.25;;
63965;SDS011;50151;52.030;5.350;2023-07-20T07:09:35;2.72;;;1.10;;
63965;SDS011;50151;52.030;5.350;2023-07-20T07:12:03;1.05;;;0.63;;
63965;SDS011;50151;52.030;5.350;2023-07-20T07:14:30;0.98;;;0.88;;
63965;SDS011;50151;52.030;5.350;2023-07-20T07:16:58;1.95;;;0.95;;
63965;SDS011;50151;52.030;5.350;2023-07-20T07:19:29;2.45;;;0.80;;
63965;SDS011;50151;52.030;5.350;2023-07-20T07:21:56;0.88;;;0.70;;
63965;SDS011;50151;52.030;5.350;2023-07-20T07:24:26;4.05;;;1.13;;
63965;SDS011;50151;52.030;5.350;2023-07-20T07:26:55;2.90;;;0.70;;
63965;SDS011;50151;52.030;5.350;2023-07-20T07:29:22;3.35;;;0.80;;
63965;SDS011;50151;52.030;5.350;2023-07-20T07:31:48;6.03;;;0.57;;
63965;SDS011;50151;52.030;5.350;2023-07-20T07:34:15;0.93;;;0.55;;
63965;SDS011;50151;52.030;5.350;2023-07-20T07:36:42;2.67;;;0.80;;
63965;SDS011;50151;52.030;5.350;2023-07-20T07:39:09;1.33;;;0.55;;
63965;SDS011;50151;52.030;5.350;2023-07-20T07:41:39;1.90;;;0.60;;
63965;SDS011;50151;52.030;5.350;2023-07-20T07:44:06;1.60;;;0.68;;
63965;SDS011;50151;52.030;5.350;2023-07-20T07:46:32;1.67;;;0.60;;
63965;SDS011;50151;52.030;5.350;2023-07-20T07:48:59;2.45;;;0.60;;
63965;SDS011;50151;52.030;5.350;2023-07-20T07:51:26;1.52;;;0.60;;
63965;SDS011;50151;52.030;5.350;2023-07-20T07:53:55;4.72;;;1.10;;
63965;SDS011;50151;52.030;5.350;2023-07-20T07:56:22;21.05;;;1.10;;
63965;SDS011;50151;52.030;5.350;2023-07-20T07:58:50;2.67;;;0.70;;
63965;SDS011;50151;52.030;5.350;2023-07-20T08:01:18;0.82;;;0.60;;
63965;SDS011;50151;52.030;5.350;2023-07-20T08:03:45;1.98;;;0.60;;
63965;SDS011;50151;52.030;5.350;2023-07-20T08:06:13;4.00;;;0.60;;
63965;SDS011;50151;52.030;5.350;2023-07-20T08:08:40;3.45;;;0.68;;
63965;SDS011;50151;52.030;5.350;2023-07-20T08:11:08;1.38;;;0.43;;
63965;SDS011;50151;52.030;5.350;2023-07-20T08:13:35;0.80;;;0.47;;
63965;SDS011;50151;52.030;5.350;2023-07-20T08:16:05;1.05;;;0.45;;
63965;SDS011;50151;52.030;5.350;2023-07-20T08:18:32;1.45;;;0.68;;
63965;SDS011;50151;52.030;5.350;2023-07-20T08:20:59;0.55;;;0.50;;
63965;SDS011;50151;52.030;5.350;2023-07-20T08:23:26;3.95;;;0.70;;
63965;SDS011;50151;52.030;5.350;2023-07-20T08:25:53;1.25;;;0.50;;
63965;SDS011;50151;52.030;5.350;2023-07-20T08:28:20;2.25;;;0.50;;
63965;SDS011;50151;52.030;5.350;2023-07-20T08:30:47;2.28;;;0.40;;
63965;SDS011;50151;52.030;5.350;2023-07-20T08:33:18;1.38;;;0.32;;
63965;SDS011;50151;52.030;5.350;2023-07-20T08:35:48;3.20;;;0.60;;
63965;SDS011;50151;52.030;5.350;2023-07-20T08:38:15;1.48;;;0.60;;
63965;SDS011;50151;52.030;5.350;2023-07-20T08:40:43;1.50;;;0.45;;
63965;SDS011;50151;52.030;5.350;2023-07-20T08:43:11;2.35;;;0.60;;
63965;SDS011;50151;52.030;5.350;2023-07-20T08:45:39;1.90;;;0.60;;
63965;SDS011;50151;52.030;5.350;2023-07-20T08:48:07;2.38;;;0.50;;
63965;SDS011;50151;52.030;5.350;2023-07-20T08:50:35;0.73;;;0.35;;
63965;SDS011;50151;52.030;5.350;2023-07-20T08:53:02;1.15;;;0.50;;
63965;SDS011;50151;52.030;5.350;2023-07-20T08:55:29;0.90;;;0.40;;
63965;SDS011;50151;52.030;5.350;2023-07-20T08:57:57;1.85;;;0.60;;
63965;SDS011;50151;52.030;5.350;2023-07-20T09:00:26;1.05;;;0.50;;
63965;SDS011;50151;52.030;5.350;2023-07-20T09:02:55;0.85;;;0.40;;
63965;SDS011;50151;52.030;5.350;2023-07-20T09:05:24;0.65;;;0.40;;
63965;SDS011;50151;52.030;5.350;2023-07-20T09:07:52;0.40;;;0.30;;
63965;SDS011;50151;52.030;5.350;2023-07-20T09:10:23;3.50;;;0.50;;
63965;SDS011;50151;52.030;5.350;2023-07-20T09:12:50;0.82;;;0.30;;
63965;SDS011;50151;52.030;5.350;2023-07-20T09:15:23;9.82;;;0.98;;
63965;SDS011;50151;52.030;5.350;2023-07-20T09:17:50;3.65;;;0.55;;
63965;SDS011;50151;52.030;5.350;2023-07-20T09:20:20;13.00;;;0.82;;
63965;SDS011;50151;52.030;5.350;2023-07-20T09:22:50;0.75;;;0.40;;
63965;SDS011;50151;52.030;5.350;2023-07-20T09:25:19;4.43;;;0.60;;
63965;SDS011;50151;52.030;5.350;2023-07-20T09:27:48;0.93;;;0.43;;
63965;SDS011;50151;52.030;5.350;2023-07-20T09:30:17;1.55;;;0.50;;
63965;SDS011;50151;52.030;5.350;2023-07-20T09:32:46;0.60;;;0.40;;
63965;SDS011;50151;52.030;5.350;2023-07-20T09:35:19;0.75;;;0.50;;
63965;SDS011;50151;52.030;5.350;2023-07-20T09:37:54;0.57;;;0.57;;
63965;SDS011;50151;52.030;5.350;2023-07-20T09:40:30;2.80;;;0.40;;
63965;SDS011;50151;52.030;5.350;2023-07-20T09:43:29;1.10;;;0.52;;
63965;SDS011;50151;52.030;5.350;2023-07-20T09:46:16;2.90;;;0.50;;
63965;SDS011;50151;52.030;5.350;2023-07-20T09:48:52;0.30;;;0.20;;
63965;SDS011;50151;52.030;5.350;2023-07-20T09:51:25;0.93;;;0.50;;
63965;SDS011;50151;52.030;5.350;2023-07-20T09:54:13;4.20;;;0.60;;
63965;SDS011;50151;52.030;5.350;2023-07-20T09:56:42;0.85;;;0.40;;
63965;SDS011;50151;52.030;5.350;2023-07-20T09:59:09;1.38;;;0.60;;
63965;SDS011;50151;52.030;5.350;2023-07-20T10:01:36;0.38;;;0.30;;
63965;SDS011;50151;52.030;5.350;2023-07-20T10:04:09;0.88;;;0.40;;
63965;SDS011;50151;52.030;5.350;2023-07-20T10:06:39;1.45;;;0.40;;
63965;SDS011;50151;52.030;5.350;2023-07-20T10:09:10;0.52;;;0.40;;
63965;SDS011;50151;52.030;5.350;2023-07-20T10:11:39;0.75;;;0.55;;
63965;SDS011;50151;52.030;5.350;2023-07-20T10:14:09;3.13;;;0.60;;
63965;SDS011;50151;52.030;5.350;2023-07-20T10:16:51;0.57;;;0.57;;
63965;SDS011;50151;52.030;5.350;2023-07-20T10:19:23;0.55;;;0.50;;
63965;SDS011;50151;52.030;5.350;2023-07-20T10:21:56;4.23;;;0.70;;
63965;SDS011;50151;52.030;5.350;2023-07-20T10:24:35;1.02;;;0.40;;
63965;SDS011;50151;52.030;5.350;2023-07-20T10:27:03;0.82;;;0.60;;
63965;SDS011;50151;52.030;5.350;2023-07-20T10:29:31;0.50;;;0.50;;
63965;SDS011;50151;52.030;5.350;2023-07-20T10:31:58;0.88;;;0.30;;
63965;SDS011;50151;52.030;5.350;2023-07-20T10:34:27;1.10;;;0.57;;
63965;SDS011;50151;52.030;5.350;2023-07-20T10:36:54;0.43;;;0.43;;
63965;SDS011;50151;52.030;5.350;2023-07-20T10:39:28;0.43;;;0.40;;
63965;SDS011;50151;52.030;5.350;2023-07-20T10:42:02;1.70;;;0.50;;
63965;SDS011;50151;52.030;5.350;2023-07-20T10:44:39;1.35;;;0.55;;
63965;SDS011;50151;52.030;5.350;2023-07-20T10:47:10;1.15;;;0.57;;
63965;SDS011;50151;52.030;5.350;2023-07-20T10:52:37;0.90;;;0.50;;
63965;SDS011;50151;52.030;5.350;2023-07-20T10:55:16;1.90;;;0.80;;
63965;SDS011;50151;52.030;5.350;2023-07-20T10:57:43;2.83;;;0.60;;
63965;SDS011;50151;52.030;5.350;2023-07-20T11:00:38;1.00;;;0.50;;
63965;SDS011;50151;52.030;5.350;2023-07-20T11:03:38;1.58;;;0.50;;
63965;SDS011;50151;52.030;5.350;2023-07-20T11:08:55;1.10;;;0.68;;
63965;SDS011;50151;52.030;5.350;2023-07-20T11:11:34;2.10;;;0.80;;
63965;SDS011;50151;52.030;5.350;2023-07-20T11:14:04;0.85;;;0.63;;
63965;SDS011;50151;52.030;5.350;2023-07-20T11:16:33;1.40;;;0.80;;
63965;SDS011;50151;52.030;5.350;2023-07-20T11:19:00;13.90;;;1.05;;
63965;SDS011;50151;52.030;5.350;2023-07-20T11:21:28;4.47;;;0.52;;
63965;SDS011;50151;52.030;5.350;2023-07-20T11:23:56;1.20;;;0.40;;
63965;SDS011;50151;52.030;5.350;2023-07-20T11:26:23;1.92;;;0.55;;
63965;SDS011;50151;52.030;5.350;2023-07-20T11:28:50;32.22;;;1.95;;
63965;SDS011;50151;52.030;5.350;2023-07-20T11:31:20;1.08;;;0.45;;
63965;SDS011;50151;52.030;5.350;2023-07-20T11:33:47;0.70;;;0.40;;
63965;SDS011;50151;52.030;5.350;2023-07-20T11:36:14;2.78;;;0.50;;
63965;SDS011;50151;52.030;5.350;2023-07-20T11:38:44;1.05;;;0.60;;
63965;SDS011;50151;52.030;5.350;2023-07-20T11:41:12;1.38;;;0.50;;
63965;SDS011;50151;52.030;5.350;2023-07-20T11:43:40;3.47;;;0.80;;
63965;SDS011;50151;52.030;5.350;2023-07-20T11:46:08;6.07;;;0.70;;
63965;SDS011;50151;52.030;5.350;2023-07-20T11:48:35;0.60;;;0.40;;
63965;SDS011;50151;52.030;5.350;2023-07-20T11:51:02;1.10;;;0.63;;
63965;SDS011;50151;52.030;5.350;2023-07-20T11:53:28;1.42;;;0.60;;
63965;SDS011;50151;52.030;5.350;2023-07-20T11:55:55;3.40;;;0.60;;
63965;SDS011;50151;52.030;5.350;2023-07-20T11:58:23;1.90;;;0.70;;
63965;SDS011;50151;52.030;5.350;2023-07-20T12:00:50;2.83;;;0.80;;
63965;SDS011;50151;52.030;5.350;2023-07-20T12:03:17;9.95;;;0.73;;
63965;SDS011;50151;52.030;5.350;2023-07-20T12:05:44;0.65;;;0.55;;
63965;SDS011;50151;52.030;5.350;2023-07-20T12:08:27;1.75;;;0.60;;
63965;SDS011;50151;52.030;5.350;2023-07-20T12:10:53;4.93;;;0.82;;
63965;SDS011;50151;52.030;5.350;2023-07-20T12:13:20;1.05;;;0.60;;
63965;SDS011;50151;52.030;5.350;2023-07-20T12:15:47;2.22;;;0.70;;
63965;SDS011;50151;52.030;5.350;2023-07-20T12:18:14;1.77;;;0.77;;
63965;SDS011;50151;52.030;5.350;2023-07-20T12:20:41;1.85;;;0.70;;
63965;SDS011;50151;52.030;5.350;2023-07-20T12:23:11;1.02;;;0.68;;
63965;SDS011;50151;52.030;5.350;2023-07-20T12:25:39;1.42;;;0.70;;
63965;SDS011;50151;52.030;5.350;2023-07-20T12:28:11;1.20;;;0.70;;
63965;SDS011;50151;52.030;5.350;2023-07-20T12:30:40;1.55;;;0.65;;
63965;SDS011;50151;52.030;5.350;2023-07-20T12:33:08;1.25;;;0.90;;
63965;SDS011;50151;52.030;5.350;2023-07-20T12:35:36;0.77;;;0.60;;
63965;SDS011;50151;52.030;5.350;2023-07-20T12:38:03;7.03;;;0.60;;
63965;SDS011;50151;52.030;5.350;2023-07-20T12:40:31;4.95;;;0.63;;
63965;SDS011;50151;52.030;5.350;2023-07-20T12:42:57;1.25;;;0.63;;
63965;SDS011;50151;52.030;5.350;2023-07-20T12:45:24;2.53;;;1.05;;
63965;SDS011;50151;52.030;5.350;2023-07-20T12:47:51;2.10;;;0.80;;
63965;SDS011;50151;52.030;5.350;2023-07-20T12:50:18;5.68;;;0.60;;
63965;SDS011;50151;52.030;5.350;2023-07-20T12:52:45;2.97;;;0.90;;
63965;SDS011;50151;52.030;5.350;2023-07-20T12:55:11;5.15;;;0.90;;
63965;SDS011;50151;52.030;5.350;2023-07-20T12:57:38;1.52;;;0.90;;
63965;SDS011;50151;52.030;5.350;2023-07-20T13:00:08;1.48;;;0.63;;
63965;SDS011;50151;52.030;5.350;2023-07-20T13:02:37;5.20;;;0.60;;
63965;SDS011;50151;52.030;5.350;2023-07-20T13:05:05;1.58;;;0.50;;
63965;SDS011;50151;52.030;5.350;2023-07-20T13:07:35;1.23;;;0.55;;
63965;SDS011;50151;52.030;5.350;2023-07-20T13:10:06;1.25;;;0.60;;
63965;SDS011;50151;52.030;5.350;2023-07-20T13:12:35;1.35;;;0.60;;
63965;SDS011;50151;52.030;5.350;2023-07-20T13:15:02;5.60;;;0.80;;
63965;SDS011;50151;52.030;5.350;2023-07-20T13:17:37;1.35;;;0.77;;
63965;SDS011;50151;52.030;5.350;2023-07-20T13:20:06;1.73;;;1.02;;
63965;SDS011;50151;52.030;5.350;2023-07-20T13:22:39;1.33;;;0.82;;
63965;SDS011;50151;52.030;5.350;2023-07-20T13:25:06;1.23;;;0.82;;
63965;SDS011;50151;52.030;5.350;2023-07-20T13:27:34;4.35;;;0.90;;
63965;SDS011;50151;52.030;5.350;2023-07-20T13:30:01;1.55;;;0.73;;
63965;SDS011;50151;52.030;5.350;2023-07-20T13:32:33;4.22;;;0.95;;
63965;SDS011;50151;52.030;5.350;2023-07-20T13:35:00;0.73;;;0.70;;
63965;SDS011;50151;52.030;5.350;2023-07-20T13:37:27;1.80;;;0.60;;
63965;SDS011;50151;52.030;5.350;2023-07-20T13:39:55;0.93;;;0.70;;
63965;SDS011;50151;52.030;5.350;2023-07-20T13:42:23;3.08;;;0.80;;
63965;SDS011;50151;52.030;5.350;2023-07-20T13:44:50;3.95;;;0.90;;
63965;SDS011;50151;52.030;5.350;2023-07-20T13:47:17;1.35;;;0.70;;
63965;SDS011;50151;52.030;5.350;2023-07-20T13:49:47;1.17;;;0.80;;
63965;SDS011;50151;52.030;5.350;2023-07-20T13:52:15;2.75;;;0.93;;
63965;SDS011;50151;52.030;5.350;2023-07-20T13:54:45;4.53;;;0.98;;
63965;SDS011;50151;52.030;5.350;2023-07-20T13:57:16;1.35;;;0.98;;
63965;SDS011;50151;52.030;5.350;2023-07-20T13:59:43;4.53;;;1.13;;
63965;SDS011;50151;52.030;5.350;2023-07-20T14:02:11;3.33;;;1.00;;
63965;SDS011;50151;52.030;5.350;2023-07-20T14:04:41;1.90;;;0.95;;
63965;SDS011;50151;52.030;5.350;2023-07-20T14:07:08;1.27;;;0.80;;
63965;SDS011;50151;52.030;5.350;2023-07-20T14:09:35;1.13;;;0.90;;
63965;SDS011;50151;52.030;5.350;2023-07-20T14:12:02;0.73;;;0.65;;
63965;SDS011;50151;52.030;5.350;2023-07-20T14:14:31;3.53;;;0.80;;
63965;SDS011;50151;52.030;5.350;2023-07-20T14:16:58;4.78;;;0.90;;
63965;SDS011;50151;52.030;5.350;2023-07-20T14:19:25;1.23;;;0.80;;
63965;SDS011;50151;52.030;5.350;2023-07-20T14:21:52;1.58;;;0.90;;
63965;SDS011;50151;52.030;5.350;2023-07-20T14:24:18;1.77;;;0.60;;
63965;SDS011;50151;52.030;5.350;2023-07-20T14:26:45;1.35;;;0.75;;
63965;SDS011;50151;52.030;5.350;2023-07-20T14:29:17;2.42;;;0.70;;
63965;SDS011;50151;52.030;5.350;2023-07-20T14:31:45;1.75;;;0.82;;
63965;SDS011;50151;52.030;5.350;2023-07-20T14:34:15;1.42;;;0.90;;
63965;SDS011;50151;52.030;5.350;2023-07-20T14:36:42;3.33;;;1.15;;
63965;SDS011;50151;52.030;5.350;2023-07-20T14:39:09;3.50;;;1.20;;
63965;SDS011;50151;52.030;5.350;2023-07-20T14:41:36;1.38;;;0.90;;
63965;SDS011;50151;52.030;5.350;2023-07-20T14:44:03;3.00;;;1.00;;
63965;SDS011;50151;52.030;5.350;2023-07-20T14:46:31;1.08;;;0.85;;
63965;SDS011;50151;52.030;5.350;2023-07-20T14:48:58;1.58;;;0.77;;
63965;SDS011;50151;52.030;5.350;2023-07-20T14:51:25;2.15;;;0.77;;
63965;SDS011;50151;52.030;5.350;2023-07-20T14:54:00;1.73;;;1.00;;
63965;SDS011;50151;52.030;5.350;2023-07-20T14:56:27;3.88;;;0.80;;
63965;SDS011;50151;52.030;5.350;2023-07-20T14:58:54;2.05;;;0.70;;
63965;SDS011;50151;52.030;5.350;2023-07-20T15:01:21;2.22;;;0.60;;
63965;SDS011;50151;52.030;5.350;2023-07-20T15:03:47;1.95;;;0.90;;
63965;SDS011;50151;52.030;5.350;2023-07-20T15:06:16;1.02;;;0.50;;
63965;SDS011;50151;52.030;5.350;2023-07-20T15:08:43;1.00;;;0.50;;
63965;SDS011;50151;52.030;5.350;2023-07-20T15:11:09;3.03;;;0.75;;
63965;SDS011;50151;52.030;5.350;2023-07-20T15:13:36;0.65;;;0.45;;
63965;SDS011;50151;52.030;5.350;2023-07-20T15:16:03;3.10;;;0.63;;
63965;SDS011;50151;52.030;5.350;2023-07-20T15:18:30;2.65;;;0.60;;
63965;SDS011;50151;52.030;5.350;2023-07-20T15:21:13;2.20;;;0.52;;
63965;SDS011;50151;52.030;5.350;2023-07-20T15:23:39;1.02;;;0.55;;
63965;SDS011;50151;52.030;5.350;2023-07-20T15:26:06;2.42;;;0.70;;
63965;SDS011;50151;52.030;5.350;2023-07-20T15:28:33;0.65;;;0.45;;
63965;SDS011;50151;52.030;5.350;2023-07-20T15:31:00;0.90;;;0.40;;
63965;SDS011;50151;52.030;5.350;2023-07-20T15:33:32;1.08;;;0.60;;
63965;SDS011;50151;52.030;5.350;2023-07-20T15:36:18;0.75;;;0.60;;
63965;SDS011;50151;52.030;5.350;2023-07-20T15:38:56;2.78;;;0.70;;
63965;SDS011;50151;52.030;5.350;2023-07-20T15:41:24;0.60;;;0.50;;
63965;SDS011;50151;52.030;5.350;2023-07-20T15:43:51;1.60;;;0.80;;
63965;SDS011;50151;52.030;5.350;2023-07-20T15:48:46;0.60;;;0.40;;
63965;SDS011;50151;52.030;5.350;2023-07-20T15:51:13;1.10;;;0.75;;
63965;SDS011;50151;52.030;5.350;2023-07-20T15:53:40;3.08;;;0.65;;
63965;SDS011;50151;52.030;5.350;2023-07-20T15:56:07;2.00;;;0.70;;
63965;SDS011;50151;52.030;5.350;2023-07-20T15:58:34;1.52;;;0.60;;
63965;SDS011;50151;52.030;5.350;2023-07-20T16:01:00;1.50;;;0.47;;
63965;SDS011;50151;52.030;5.350;2023-07-20T16:03:27;4.15;;;0.68;;
63965;SDS011;50151;52.030;5.350;2023-07-20T16:06:03;2.03;;;0.57;;
63965;SDS011;50151;52.030;5.350;2023-07-20T16:08:31;2.65;;;0.60;;
63965;SDS011;50151;52.030;5.350;2023-07-20T16:10:58;1.25;;;0.60;;
63965;SDS011;50151;52.030;5.350;2023-07-20T16:13:26;0.75;;;0.40;;
63965;SDS011;50151;52.030;5.350;2023-07-20T16:15:53;3.65;;;0.90;;
63965;SDS011;50151;52.030;5.350;2023-07-20T16:18:23;0.90;;;0.55;;
63965;SDS011;50151;52.030;5.350;2023-07-20T16:20:51;1.30;;;0.65;;
63965;SDS011;50151;52.030;5.350;2023-07-20T16:23:18;3.53;;;0.60;;
63965;SDS011;50151;52.030;5.350;2023-07-20T16:25:46;3.67;;;0.47;;
63965;SDS011;50151;52.030;5.350;2023-07-20T16:28:13;1.75;;;0.40;;
63965;SDS011;50151;52.030;5.350;2023-07-20T16:30:40;1.20;;;0.50;;
63965;SDS011;50151;52.030;5.350;2023-07-20T16:33:07;2.20;;;0.50;;
63965;SDS011;50151;52.030;5.350;2023-07-20T16:35:40;1.40;;;0.57;;
63965;SDS011;50151;52.030;5.350;2023-07-20T16:38:10;0.93;;;0.45;;
63965;SDS011;50151;52.030;5.350;2023-07-20T16:40:39;2.00;;;0.50;;
63965;SDS011;50151;52.030;5.350;2023-07-20T16:43:10;1.17;;;0.65;;
63965;SDS011;50151;52.030;5.350;2023-07-20T16:45:37;1.33;;;0.50;;
63965;SDS011;50151;52.030;5.350;2023-07-20T16:48:04;1.25;;;0.47;;
63965;SDS011;50151;52.030;5.350;2023-07-20T16:50:31;4.55;;;0.80;;
63965;SDS011;50151;52.030;5.350;2023-07-20T16:52:58;1.02;;;0.70;;
63965;SDS011;50151;52.030;5.350;2023-07-20T16:55:25;4.13;;;0.70;;
63965;SDS011;50151;52.030;5.350;2023-07-20T16:57:51;2.55;;;0.40;;
63965;SDS011;50151;52.030;5.350;2023-07-20T17:00:18;1.05;;;0.57;;
63965;SDS011;50151;52.030;5.350;2023-07-20T17:02:45;3.03;;;0.60;;
63965;SDS011;50151;52.030;5.350;2023-07-20T17:05:12;1.55;;;0.68;;
63965;SDS011;50151;52.030;5.350;2023-07-20T17:07:39;1.02;;;0.50;;
63965;SDS011;50151;52.030;5.350;2023-07-20T17:10:07;1.13;;;0.40;;
63965;SDS011;50151;52.030;5.350;2023-07-20T17:12:38;1.65;;;0.73;;
63965;SDS011;50151;52.030;5.350;2023-07-20T17:15:05;2.65;;;0.52;;
63965;SDS011;50151;52.030;5.350;2023-07-20T17:17:33;0.68;;;0.40;;
63965;SDS011;50151;52.030;5.350;2023-07-20T17:20:00;2.35;;;0.40;;
63965;SDS011;50151;52.030;5.350;2023-07-20T17:22:30;1.48;;;0.50;;
63965;SDS011;50151;52.030;5.350;2023-07-20T17:24:57;0.82;;;0.47;;
63965;SDS011;50151;52.030;5.350;2023-07-20T17:27:27;0.90;;;0.50;;
63965;SDS011;50151;52.030;5.350;2023-07-20T17:29:54;2.25;;;0.60;;
63965;SDS011;50151;52.030;5.350;2023-07-20T17:32:22;1.08;;;0.43;;
63965;SDS011;50151;52.030;5.350;2023-07-20T17:34:49;1.00;;;0.40;;
63965;SDS011;50151;52.030;5.350;2023-07-20T17:37:17;0.77;;;0.50;;
63965;SDS011;50151;52.030;5.350;2023-07-20T17:39:46;0.60;;;0.50;;
63965;SDS011;50151;52.030;5.350;2023-07-20T17:42:18;3.13;;;0.70;;
63965;SDS011;50151;52.030;5.350;2023-07-20T17:44:48;0.65;;;0.40;;
63965;SDS011;50151;52.030;5.350;2023-07-20T17:47:15;3.22;;;0.57;;
63965;SDS011;50151;52.030;5.350;2023-07-20T17:49:44;1.42;;;0.52;;
63965;SDS011;50151;52.030;5.350;2023-07-20T17:52:11;0.70;;;0.32;;
63965;SDS011;50151;52.030;5.350;2023-07-20T17:54:38;0.85;;;0.52;;
63965;SDS011;50151;52.030;5.350;2023-07-20T17:57:05;2.22;;;0.40;;
63965;SDS011;50151;52.030;5.350;2023-07-20T17:59:32;0.65;;;0.38;;
63965;SDS011;50151;52.030;5.350;2023-07-20T18:02:21;1.48;;;0.30;;
63965;SDS011;50151;52.030;5.350;2023-07-20T18:04:51;1.25;;;0.50;;
63965;SDS011;50151;52.030;5.350;2023-07-20T18:07:18;3.20;;;0.55;;
63965;SDS011;50151;52.030;5.350;2023-07-20T18:09:45;2.97;;;0.57;;
63965;SDS011;50151;52.030;5.350;2023-07-20T18:12:12;1.40;;;0.40;;
63965;SDS011;50151;52.030;5.350;2023-07-20T18:14:38;0.80;;;0.40;;
63965;SDS011;50151;52.030;5.350;2023-07-20T18:17:05;1.33;;;0.70;;
63965;SDS011;50151;52.030;5.350;2023-07-20T18:19:32;2.35;;;0.40;;
63965;SDS011;50151;52.030;5.350;2023-07-20T18:21:59;6.40;;;0.93;;
63965;SDS011;50151;52.030;5.350;2023-07-20T18:24:25;0.63;;;0.63;;
63965;SDS011;50151;52.030;5.350;2023-07-20T18:26:53;2.13;;;0.73;;
63965;SDS011;50151;52.030;5.350;2023-07-20T18:29:20;2.38;;;0.60;;
63965;SDS011;50151;52.030;5.350;2023-07-20T18:31:46;1.63;;;0.70;;
63965;SDS011;50151;52.030;5.350;2023-07-20T18:34:13;1.65;;;0.70;;
63965;SDS011;50151;52.030;5.350;2023-07-20T18:36:40;3.38;;;0.65;;
63965;SDS011;50151;52.030;5.350;2023-07-20T18:39:06;1.08;;;0.70;;
63965;SDS011;50151;52.030;5.350;2023-07-20T18:41:33;0.75;;;0.75;;
63965;SDS011;50151;52.030;5.350;2023-07-20T18:44:00;1.60;;;0.70;;
63965;SDS011;50151;52.030;5.350;2023-07-20T18:46:27;2.38;;;0.73;;
63965;SDS011;50151;52.030;5.350;2023-07-20T18:48:53;3.25;;;0.85;;
63965;SDS011;50151;52.030;5.350;2023-07-20T18:51:21;1.95;;;0.80;;
63965;SDS011;50151;52.030;5.350;2023-07-20T18:53:49;3.05;;;0.60;;
63965;SDS011;50151;52.030;5.350;2023-07-20T18:56:15;1.75;;;0.70;;
63965;SDS011;50151;52.030;5.350;2023-07-20T18:58:42;1.33;;;0.60;;
63965;SDS011;50151;52.030;5.350;2023-07-20T19:01:09;1.52;;;0.90;;
63965;SDS011;50151;52.030;5.350;2023-07-20T19:03:36;1.77;;;0.80;;
63965;SDS011;50151;52.030;5.350;2023-07-20T19:06:03;3.10;;;0.90;;
63965;SDS011;50151;52.030;5.350;2023-07-20T19:08:31;3.13;;;0.63;;
63965;SDS011;50151;52.030;5.350;2023-07-20T19:10:58;4.18;;;0.70;;
63965;SDS011;50151;52.030;5.350;2023-07-20T19:13:30;1.20;;;0.70;;
63965;SDS011;50151;52.030;5.350;2023-07-20T19:16:00;1.83;;;0.60;;
63965;SDS011;50151;52.030;5.350;2023-07-20T19:18:29;2.00;;;0.70;;
63965;SDS011;50151;52.030;5.350;2023-07-20T19:20:59;1.67;;;0.52;;
63965;SDS011;50151;52.030;5.350;2023-07-20T19:23:27;1.50;;;0.65;;
63965;SDS011;50151;52.030;5.350;2023-07-20T19:25:56;1.17;;;0.73;;
63965;SDS011;50151;52.030;5.350;2023-07-20T19:28:22;2.35;;;0.60;;
63965;SDS011;50151;52.030;5.350;2023-07-20T19:30:49;2.20;;;0.85;;
63965;SDS011;50151;52.030;5.350;2023-07-20T19:33:16;2.88;;;0.88;;
63965;SDS011;50151;52.030;5.350;2023-07-20T19:35:43;3.80;;;0.85;;
63965;SDS011;50151;52.030;5.350;2023-07-20T19:38:10;1.35;;;0.70;;
63965;SDS011;50151;52.030;5.350;2023-07-20T19:40:37;2.20;;;0.80;;
63965;SDS011;50151;52.030;5.350;2023-07-20T19:43:04;1.60;;;0.63;;
63965;SDS011;50151;52.030;5.350;2023-07-20T19:45:34;1.65;;;0.55;;
63965;SDS011;50151;52.030;5.350;2023-07-20T19:48:01;0.90;;;0.70;;
63965;SDS011;50151;52.030;5.350;2023-07-20T19:50:30;1.63;;;0.60;;
63965;SDS011;50151;52.030;5.350;2023-07-20T19:52:56;2.50;;;0.75;;
63965;SDS011;50151;52.030;5.350;2023-07-20T19:55:26;2.22;;;0.88;;
63965;SDS011;50151;52.030;5.350;2023-07-20T19:57:53;2.22;;;0.70;;
63965;SDS011;50151;52.030;5.350;2023-07-20T20:00:21;3.70;;;0.52;;
63965;SDS011;50151;52.030;5.350;2023-07-20T20:02:53;2.08;;;0.82;;
63965;SDS011;50151;52.030;5.350;2023-07-20T20:05:23;1.90;;;0.70;;
63965;SDS011;50151;52.030;5.350;2023-07-20T20:07:51;4.82;;;0.98;;
63965;SDS011;50151;52.030;5.350;2023-07-20T20:10:18;2.00;;;0.93;;
63965;SDS011;50151;52.030;5.350;2023-07-20T20:12:45;2.78;;;0.80;;
63965;SDS011;50151;52.030;5.350;2023-07-20T20:15:12;1.20;;;0.60;;
63965;SDS011;50151;52.030;5.350;2023-07-20T20:17:38;1.38;;;0.80;;
63965;SDS011;50151;52.030;5.350;2023-07-20T20:20:05;1.95;;;0.80;;
63965;SDS011;50151;52.030;5.350;2023-07-20T20:22:33;1.33;;;0.77;;
63965;SDS011;50151;52.030;5.350;2023-07-20T20:24:59;1.80;;;0.50;;
63965;SDS011;50151;52.030;5.350;2023-07-20T20:27:26;3.63;;;0.90;;
63965;SDS011;50151;52.030;5.350;2023-07-20T20:29:53;3.60;;;1.00;;
63965;SDS011;50151;52.030;5.350;2023-07-20T20:32:21;2.17;;;0.60;;
63965;SDS011;50151;52.030;5.350;2023-07-20T20:34:48;2.72;;;0.77;;
63965;SDS011;50151;52.030;5.350;2023-07-20T20:37:15;2.88;;;0.95;;
63965;SDS011;50151;52.030;5.350;2023-07-20T20:39:42;2.25;;;1.02;;
63965;SDS011;50151;52.030;5.350;2023-07-20T20:42:09;5.18;;;1.10;;
63965;SDS011;50151;52.030;5.350;2023-07-20T20:44:37;2.10;;;0.90;;
63965;SDS011;50151;52.030;5.350;2023-07-20T20:47:03;2.55;;;0.90;;
63965;SDS011;50151;52.030;5.350;2023-07-20T20:49:31;7.00;;;1.00;;
63965;SDS011;50151;52.030;5.350;2023-07-20T20:51:58;3.97;;;0.90;;
63965;SDS011;50151;52.030;5.350;2023-07-20T20:54:24;3.67;;;0.85;;
63965;SDS011;50151;52.030;5.350;2023-07-20T20:56:51;3.17;;;1.00;;
63965;SDS011;50151;52.030;5.350;2023-07-20T20:59:18;1.27;;;0.82;;
63965;SDS011;50151;52.030;5.350;2023-07-20T21:01:48;3.38;;;0.95;;
